sensor_id;sensor_type;location;lat;lon;timestamp;P1;durP1;ratioP1;P2;durP2;ratioP2
19727;SDS011;10015;52.530;13.390;2023-11-19T00:01:31;12.97;;;5.87;;
19727;SDS011;10015;52.530;13.390;2023-11-19T00:04:01;10.83;;;6.13;;
19727;SDS011;10015;52.530;13.390;2023-11-19T00:06:27;11.00;;;6.13;;
19727;SDS011;10015;52.530;13.390;2023-11-19T00:09:02;12.33;;;5.97;;
19727;SDS011;10015;52.530;13.390;2023-11-19T00:11:59;12.07;;;6.30;;
19727;SDS011;10015;52.530;13.390;2023-11-19T00:14:40;11.13;;;5.67;;
19727;SDS011;10015;52.530;13.390;2023-11-19T00:17:06;9.80;;;5.63;;
19727;SDS011;10015;52.530;13.390;2023-11-19T00:19:41;11.63;;;6.03;;
19727;SDS011;10015;52.530;13.390;2023-11-19T00:22:22;9.57;;;5.60;;
19727;SDS011;10015;52.530;13.390;2023-11-19T00:24:54;10.23;;;5.63;;
19727;SDS011;10015;52.530;13.390;2023-11-19T00:27:23;10.40;;;5.63;;
19727;SDS011;10015;52.530;13.390;2023-11-19T00:30:04;11.97;;;5.90;;
19727;SDS011;10015;52.530;13.390;2023-11-19T00:32:32;12.00;;;6.40;;
19727;SDS011;10015;52.530;13.390;2023-11-19T00:35:00;10.10;;;5.77;;
19727;SDS011;10015;52.530;13.390;2023-11-19T00:37:33;12.43;;;6.50;;
19727;SDS011;10015;52.530;13.390;2023-11-19T00:40:06;11.43;;;6.37;;
19727;SDS011;10015;52.530;13.390;2023-11-19T00:42:39;11.30;;;6.10;;
19727;SDS011;10015;52.530;13.390;2023-11-19T00:45:08;10.97;;;5.67;;
19727;SDS011;10015;52.530;13.390;2023-11-19T00:47:35;11.97;;;5.90;;
19727;SDS011;10015;52.530;13.390;2023-11-19T00:50:04;12.27;;;5.80;;
19727;SDS011;10015;52.530;13.390;2023-11-19T00:52:34;11.97;;;6.10;;
19727;SDS011;10015;52.530;13.390;2023-11-19T00:55:03;11.50;;;6.30;;
19727;SDS011;10015;52.530;13.390;2023-11-19T00:57:33;11.93;;;6.23;;
19727;SDS011;10015;52.530;13.390;2023-11-19T00:59:59;12.73;;;6.20;;
19727;SDS011;10015;52.530;13.390;2023-11-19T01:02:25;11.40;;;5.83;;
19727;SDS011;10015;52.530;13.390;2023-11-19T01:04:51;11.73;;;6.23;;
19727;SDS011;10015;52.530;13.390;2023-11-19T01:07:17;9.53;;;5.80;;
19727;SDS011;10015;52.530;13.390;2023-11-19T01:09:43;9.67;;;5.33;;
19727;SDS011;10015;52.530;13.390;2023-11-19T01:12:09;10.90;;;5.33;;
19727;SDS011;10015;52.530;13.390;2023-11-19T01:14:35;13.73;;;5.70;;
19727;SDS011;10015;52.530;13.390;2023-11-19T01:17:04;10.70;;;5.40;;
19727;SDS011;10015;52.530;13.390;2023-11-19T01:19:31;9.83;;;5.27;;
19727;SDS011;10015;52.530;13.390;2023-11-19T01:21:57;11.60;;;4.80;;
19727;SDS011;10015;52.530;13.390;2023-11-19T01:24:23;8.60;;;4.73;;
19727;SDS011;10015;52.530;13.390;2023-11-19T01:26:49;8.83;;;5.43;;
19727;SDS011;10015;52.530;13.390;2023-11-19T01:29:15;8.33;;;5.37;;
19727;SDS011;10015;52.530;13.390;2023-11-19T01:31:42;9.77;;;5.37;;
19727;SDS011;10015;52.530;13.390;2023-11-19T01:34:09;10.63;;;5.97;;
19727;SDS011;10015;52.530;13.390;2023-11-19T01:36:36;8.53;;;4.93;;
19727;SDS011;10015;52.530;13.390;2023-11-19T01:39:03;7.97;;;4.90;;
19727;SDS011;10015;52.530;13.390;2023-11-19T01:41:35;9.73;;;4.97;;
19727;SDS011;10015;52.530;13.390;2023-11-19T01:44:02;9.13;;;5.07;;
19727;SDS011;10015;52.530;13.390;2023-11-19T01:46:28;11.40;;;5.70;;
19727;SDS011;10015;52.530;13.390;2023-11-19T01:48:57;13.30;;;5.63;;
19727;SDS011;10015;52.530;13.390;2023-11-19T01:51:28;8.00;;;5.07;;
19727;SDS011;10015;52.530;13.390;2023-11-19T01:53:54;10.10;;;5.07;;
19727;SDS011;10015;52.530;13.390;2023-11-19T01:56:22;10.43;;;5.37;;
19727;SDS011;10015;52.530;13.390;2023-11-19T01:58:49;9.87;;;5.10;;
19727;SDS011;10015;52.530;13.390;2023-11-19T02:01:15;10.70;;;5.40;;
19727;SDS011;10015;52.530;13.390;2023-11-19T02:03:43;8.23;;;5.07;;
19727;SDS011;10015;52.530;13.390;2023-11-19T02:06:08;9.93;;;5.00;;
19727;SDS011;10015;52.530;13.390;2023-11-19T02:08:35;11.97;;;5.80;;
19727;SDS011;10015;52.530;13.390;2023-11-19T02:11:03;12.37;;;5.57;;
19727;SDS011;10015;52.530;13.390;2023-11-19T02:13:32;10.23;;;5.10;;
19727;SDS011;10015;52.530;13.390;2023-11-19T02:15:58;10.20;;;5.03;;
19727;SDS011;10015;52.530;13.390;2023-11-19T02:18:25;12.03;;;5.53;;
19727;SDS011;10015;52.530;13.390;2023-11-19T02:20:56;7.37;;;4.33;;
19727;SDS011;10015;52.530;13.390;2023-11-19T02:23:23;10.10;;;4.53;;
19727;SDS011;10015;52.530;13.390;2023-11-19T02:28:36;8.37;;;4.60;;
19727;SDS011;10015;52.530;13.390;2023-11-19T02:31:02;8.43;;;4.97;;
19727;SDS011;10015;52.530;13.390;2023-11-19T02:33:30;10.33;;;4.67;;
19727;SDS011;10015;52.530;13.390;2023-11-19T02:35:56;8.60;;;4.53;;
19727;SDS011;10015;52.530;13.390;2023-11-19T02:38:22;7.17;;;4.50;;
19727;SDS011;10015;52.530;13.390;2023-11-19T02:40:48;8.00;;;4.80;;
19727;SDS011;10015;52.530;13.390;2023-11-19T02:43:14;8.57;;;4.47;;
19727;SDS011;10015;52.530;13.390;2023-11-19T02:45:41;8.73;;;4.70;;
19727;SDS011;10015;52.530;13.390;2023-11-19T02:48:11;8.83;;;4.83;;
19727;SDS011;10015;52.530;13.390;2023-11-19T02:50:36;7.40;;;4.40;;
19727;SDS011;10015;52.530;13.390;2023-11-19T02:53:02;9.20;;;4.60;;
19727;SDS011;10015;52.530;13.390;2023-11-19T02:55:28;7.53;;;4.60;;
19727;SDS011;10015;52.530;13.390;2023-11-19T02:57:59;7.50;;;4.17;;
19727;SDS011;10015;52.530;13.390;2023-11-19T03:00:25;9.20;;;4.40;;
19727;SDS011;10015;52.530;13.390;2023-11-19T03:03:01;8.07;;;4.27;;
19727;SDS011;10015;52.530;13.390;2023-11-19T03:05:47;6.03;;;3.77;;
19727;SDS011;10015;52.530;13.390;2023-11-19T03:08:17;7.63;;;4.00;;
19727;SDS011;10015;52.530;13.390;2023-11-19T03:10:43;7.60;;;3.93;;
19727;SDS011;10015;52.530;13.390;2023-11-19T03:13:10;5.40;;;3.40;;
19727;SDS011;10015;52.530;13.390;2023-11-19T03:15:39;6.43;;;3.60;;
19727;SDS011;10015;52.530;13.390;2023-11-19T03:18:06;7.80;;;3.27;;
19727;SDS011;10015;52.530;13.390;2023-11-19T03:20:32;7.40;;;3.87;;
19727;SDS011;10015;52.530;13.390;2023-11-19T03:22:59;5.80;;;3.63;;
19727;SDS011;10015;52.530;13.390;2023-11-19T03:25:27;5.13;;;3.10;;
19727;SDS011;10015;52.530;13.390;2023-11-19T03:28:00;5.00;;;3.50;;
19727;SDS011;10015;52.530;13.390;2023-11-19T03:30:27;7.67;;;3.87;;
19727;SDS011;10015;52.530;13.390;2023-11-19T03:32:54;7.47;;;3.83;;
19727;SDS011;10015;52.530;13.390;2023-11-19T03:35:21;7.70;;;3.87;;
19727;SDS011;10015;52.530;13.390;2023-11-19T03:37:47;6.70;;;3.87;;
19727;SDS011;10015;52.530;13.390;2023-11-19T03:40:13;7.87;;;4.40;;
19727;SDS011;10015;52.530;13.390;2023-11-19T03:42:40;5.93;;;3.70;;
19727;SDS011;10015;52.530;13.390;2023-11-19T03:45:09;6.97;;;3.97;;
19727;SDS011;10015;52.530;13.390;2023-11-19T03:47:35;9.17;;;4.40;;
19727;SDS011;10015;52.530;13.390;2023-11-19T03:50:01;6.13;;;3.77;;
19727;SDS011;10015;52.530;13.390;2023-11-19T03:52:28;8.53;;;4.27;;
19727;SDS011;10015;52.530;13.390;2023-11-19T03:54:54;7.27;;;4.37;;
19727;SDS011;10015;52.530;13.390;2023-11-19T03:57:22;8.63;;;4.80;;
19727;SDS011;10015;52.530;13.390;2023-11-19T03:59:48;9.73;;;4.57;;
19727;SDS011;10015;52.530;13.390;2023-11-19T04:02:15;9.93;;;4.63;;
19727;SDS011;10015;52.530;13.390;2023-11-19T04:04:41;10.73;;;5.00;;
19727;SDS011;10015;52.530;13.390;2023-11-19T04:07:08;8.40;;;4.67;;
19727;SDS011;10015;52.530;13.390;2023-11-19T04:09:34;8.23;;;4.23;;
19727;SDS011;10015;52.530;13.390;2023-11-19T04:12:03;8.97;;;4.37;;
19727;SDS011;10015;52.530;13.390;2023-11-19T04:14:29;9.93;;;4.83;;
19727;SDS011;10015;52.530;13.390;2023-11-19T04:16:56;9.13;;;4.37;;
19727;SDS011;10015;52.530;13.390;2023-11-19T04:19:22;8.70;;;4.93;;
19727;SDS011;10015;52.530;13.390;2023-11-19T04:21:48;9.97;;;5.03;;
19727;SDS011;10015;52.530;13.390;2023-11-19T04:24:17;8.03;;;4.70;;
19727;SDS011;10015;52.530;13.390;2023-11-19T04:26:44;8.83;;;4.57;;
19727;SDS011;10015;52.530;13.390;2023-11-19T04:29:11;8.50;;;5.10;;
19727;SDS011;10015;52.530;13.390;2023-11-19T04:31:38;11.77;;;4.90;;
19727;SDS011;10015;52.530;13.390;2023-11-19T04:34:05;8.70;;;5.07;;
19727;SDS011;10015;52.530;13.390;2023-11-19T04:36:34;9.43;;;4.93;;
19727;SDS011;10015;52.530;13.390;2023-11-19T04:39:00;8.73;;;5.13;;
19727;SDS011;10015;52.530;13.390;2023-11-19T04:41:26;8.07;;;4.60;;
19727;SDS011;10015;52.530;13.390;2023-11-19T04:43:56;8.37;;;4.40;;
19727;SDS011;10015;52.530;13.390;2023-11-19T04:46:22;8.80;;;4.77;;
19727;SDS011;10015;52.530;13.390;2023-11-19T04:48:49;10.40;;;5.10;;
19727;SDS011;10015;52.530;13.390;2023-11-19T04:51:16;8.97;;;4.77;;
19727;SDS011;10015;52.530;13.390;2023-11-19T04:53:42;11.43;;;5.03;;
19727;SDS011;10015;52.530;13.390;2023-11-19T04:56:08;10.17;;;5.50;;
19727;SDS011;10015;52.530;13.390;2023-11-19T04:58:35;8.70;;;5.33;;
19727;SDS011;10015;52.530;13.390;2023-11-19T05:01:03;9.10;;;5.17;;
19727;SDS011;10015;52.530;13.390;2023-11-19T05:03:30;8.57;;;4.97;;
19727;SDS011;10015;52.530;13.390;2023-11-19T05:05:59;11.63;;;5.57;;
19727;SDS011;10015;52.530;13.390;2023-11-19T05:08:28;11.40;;;5.80;;
19727;SDS011;10015;52.530;13.390;2023-11-19T05:10:54;13.20;;;5.43;;
19727;SDS011;10015;52.530;13.390;2023-11-19T05:13:20;9.83;;;5.43;;
19727;SDS011;10015;52.530;13.390;2023-11-19T05:15:45;9.50;;;5.83;;
19727;SDS011;10015;52.530;13.390;2023-11-19T05:18:12;10.23;;;4.93;;
19727;SDS011;10015;52.530;13.390;2023-11-19T05:20:37;10.40;;;5.17;;
19727;SDS011;10015;52.530;13.390;2023-11-19T05:23:03;10.40;;;5.57;;
19727;SDS011;10015;52.530;13.390;2023-11-19T05:25:29;9.90;;;5.67;;
19727;SDS011;10015;52.530;13.390;2023-11-19T05:27:55;9.87;;;5.53;;
19727;SDS011;10015;52.530;13.390;2023-11-19T05:30:21;12.50;;;5.97;;
19727;SDS011;10015;52.530;13.390;2023-11-19T05:32:48;9.30;;;5.80;;
19727;SDS011;10015;52.530;13.390;2023-11-19T05:35:14;10.13;;;6.00;;
19727;SDS011;10015;52.530;13.390;2023-11-19T05:37:40;10.40;;;5.60;;
19727;SDS011;10015;52.530;13.390;2023-11-19T05:40:06;11.93;;;5.80;;
19727;SDS011;10015;52.530;13.390;2023-11-19T05:42:42;10.60;;;5.17;;
19727;SDS011;10015;52.530;13.390;2023-11-19T05:45:10;7.90;;;4.50;;
19727;SDS011;10015;52.530;13.390;2023-11-19T05:47:38;8.73;;;4.97;;
19727;SDS011;10015;52.530;13.390;2023-11-19T05:50:04;8.07;;;4.77;;
19727;SDS011;10015;52.530;13.390;2023-11-19T05:52:31;8.07;;;4.87;;
19727;SDS011;10015;52.530;13.390;2023-11-19T05:55:00;9.00;;;4.83;;
19727;SDS011;10015;52.530;13.390;2023-11-19T05:57:29;8.60;;;4.93;;
19727;SDS011;10015;52.530;13.390;2023-11-19T05:59:55;8.23;;;4.70;;
19727;SDS011;10015;52.530;13.390;2023-11-19T06:02:21;8.23;;;5.10;;
19727;SDS011;10015;52.530;13.390;2023-11-19T06:04:47;9.13;;;4.90;;
19727;SDS011;10015;52.530;13.390;2023-11-19T06:07:13;9.03;;;5.40;;
19727;SDS011;10015;52.530;13.390;2023-11-19T06:09:40;10.33;;;5.30;;
19727;SDS011;10015;52.530;13.390;2023-11-19T06:12:06;9.77;;;5.10;;
19727;SDS011;10015;52.530;13.390;2023-11-19T06:14:39;8.93;;;4.83;;
19727;SDS011;10015;52.530;13.390;2023-11-19T06:17:05;9.93;;;5.30;;
19727;SDS011;10015;52.530;13.390;2023-11-19T06:19:31;10.20;;;5.70;;
19727;SDS011;10015;52.530;13.390;2023-11-19T06:21:58;10.40;;;5.20;;
19727;SDS011;10015;52.530;13.390;2023-11-19T06:24:24;9.93;;;5.47;;
19727;SDS011;10015;52.530;13.390;2023-11-19T06:26:50;8.97;;;4.93;;
19727;SDS011;10015;52.530;13.390;2023-11-19T06:29:16;8.07;;;5.07;;
19727;SDS011;10015;52.530;13.390;2023-11-19T06:31:45;9.13;;;5.07;;
19727;SDS011;10015;52.530;13.390;2023-11-19T06:34:14;8.20;;;4.53;;
19727;SDS011;10015;52.530;13.390;2023-11-19T06:36:40;8.87;;;5.37;;
19727;SDS011;10015;52.530;13.390;2023-11-19T06:39:06;8.97;;;4.97;;
19727;SDS011;10015;52.530;13.390;2023-11-19T06:41:32;9.23;;;5.10;;
19727;SDS011;10015;52.530;13.390;2023-11-19T06:43:58;7.43;;;4.60;;
19727;SDS011;10015;52.530;13.390;2023-11-19T06:46:25;8.73;;;4.77;;
19727;SDS011;10015;52.530;13.390;2023-11-19T06:48:51;8.80;;;4.97;;
19727;SDS011;10015;52.530;13.390;2023-11-19T06:51:17;8.93;;;4.50;;
19727;SDS011;10015;52.530;13.390;2023-11-19T06:53:43;10.13;;;4.57;;
19727;SDS011;10015;52.530;13.390;2023-11-19T06:58:48;8.57;;;4.87;;
19727;SDS011;10015;52.530;13.390;2023-11-19T07:01:15;7.37;;;4.13;;
19727;SDS011;10015;52.530;13.390;2023-11-19T07:03:41;8.27;;;4.40;;
19727;SDS011;10015;52.530;13.390;2023-11-19T07:06:24;7.47;;;4.80;;
19727;SDS011;10015;52.530;13.390;2023-11-19T07:08:58;7.57;;;4.70;;
19727;SDS011;10015;52.530;13.390;2023-11-19T07:11:24;7.17;;;4.33;;
19727;SDS011;10015;52.530;13.390;2023-11-19T07:13:50;7.73;;;4.33;;
19727;SDS011;10015;52.530;13.390;2023-11-19T07:16:16;8.07;;;4.53;;
19727;SDS011;10015;52.530;13.390;2023-11-19T07:18:43;8.03;;;4.23;;
19727;SDS011;10015;52.530;13.390;2023-11-19T07:21:09;6.87;;;4.37;;
19727;SDS011;10015;52.530;13.390;2023-11-19T07:23:35;7.27;;;4.10;;
19727;SDS011;10015;52.530;13.390;2023-11-19T07:26:06;6.57;;;4.37;;
19727;SDS011;10015;52.530;13.390;2023-11-19T07:28:33;5.73;;;3.67;;
19727;SDS011;10015;52.530;13.390;2023-11-19T07:31:00;6.27;;;4.00;;
19727;SDS011;10015;52.530;13.390;2023-11-19T07:33:27;6.20;;;4.00;;
19727;SDS011;10015;52.530;13.390;2023-11-19T07:35:53;5.97;;;3.63;;
19727;SDS011;10015;52.530;13.390;2023-11-19T07:38:19;5.63;;;3.70;;
19727;SDS011;10015;52.530;13.390;2023-11-19T07:40:45;6.53;;;3.90;;
19727;SDS011;10015;52.530;13.390;2023-11-19T07:43:15;7.50;;;4.07;;
19727;SDS011;10015;52.530;13.390;2023-11-19T07:45:41;7.93;;;4.63;;
19727;SDS011;10015;52.530;13.390;2023-11-19T07:48:11;7.13;;;4.00;;
19727;SDS011;10015;52.530;13.390;2023-11-19T07:50:39;7.87;;;4.43;;
19727;SDS011;10015;52.530;13.390;2023-11-19T07:53:07;6.47;;;4.10;;
19727;SDS011;10015;52.530;13.390;2023-11-19T07:55:34;7.07;;;4.50;;
19727;SDS011;10015;52.530;13.390;2023-11-19T07:58:00;7.10;;;3.70;;
19727;SDS011;10015;52.530;13.390;2023-11-19T08:00:26;7.27;;;4.50;;
19727;SDS011;10015;52.530;13.390;2023-11-19T08:02:52;7.93;;;4.33;;
19727;SDS011;10015;52.530;13.390;2023-11-19T08:05:18;8.57;;;4.30;;
19727;SDS011;10015;52.530;13.390;2023-11-19T08:07:44;8.17;;;4.13;;
19727;SDS011;10015;52.530;13.390;2023-11-19T08:10:10;7.03;;;4.17;;
19727;SDS011;10015;52.530;13.390;2023-11-19T08:12:37;7.93;;;4.47;;
19727;SDS011;10015;52.530;13.390;2023-11-19T08:15:03;7.97;;;3.73;;
19727;SDS011;10015;52.530;13.390;2023-11-19T08:17:32;5.80;;;3.77;;
19727;SDS011;10015;52.530;13.390;2023-11-19T08:19:58;6.27;;;4.17;;
19727;SDS011;10015;52.530;13.390;2023-11-19T08:22:25;7.03;;;4.20;;
19727;SDS011;10015;52.530;13.390;2023-11-19T08:24:51;7.97;;;4.60;;
19727;SDS011;10015;52.530;13.390;2023-11-19T08:27:17;6.60;;;4.40;;
19727;SDS011;10015;52.530;13.390;2023-11-19T08:29:44;8.20;;;4.60;;
19727;SDS011;10015;52.530;13.390;2023-11-19T08:32:18;5.87;;;3.90;;
19727;SDS011;10015;52.530;13.390;2023-11-19T08:34:47;5.47;;;4.20;;
19727;SDS011;10015;52.530;13.390;2023-11-19T08:37:14;8.07;;;4.47;;
19727;SDS011;10015;52.530;13.390;2023-11-19T08:39:40;7.23;;;4.10;;
19727;SDS011;10015;52.530;13.390;2023-11-19T08:42:07;7.40;;;4.53;;
19727;SDS011;10015;52.530;13.390;2023-11-19T08:44:33;7.03;;;4.37;;
19727;SDS011;10015;52.530;13.390;2023-11-19T08:46:59;7.13;;;4.30;;
19727;SDS011;10015;52.530;13.390;2023-11-19T08:49:33;6.23;;;4.10;;
19727;SDS011;10015;52.530;13.390;2023-11-19T08:52:00;7.70;;;4.00;;
19727;SDS011;10015;52.530;13.390;2023-11-19T08:54:26;8.33;;;4.97;;
19727;SDS011;10015;52.530;13.390;2023-11-19T08:56:52;6.53;;;4.20;;
19727;SDS011;10015;52.530;13.390;2023-11-19T08:59:18;7.73;;;4.47;;
19727;SDS011;10015;52.530;13.390;2023-11-19T09:01:46;7.13;;;4.47;;
19727;SDS011;10015;52.530;13.390;2023-11-19T09:04:13;9.77;;;4.20;;
19727;SDS011;10015;52.530;13.390;2023-11-19T09:06:39;6.10;;;3.87;;
19727;SDS011;10015;52.530;13.390;2023-11-19T09:09:05;6.33;;;3.97;;
19727;SDS011;10015;52.530;13.390;2023-11-19T09:11:32;8.00;;;4.10;;
19727;SDS011;10015;52.530;13.390;2023-11-19T09:13:58;5.70;;;3.87;;
19727;SDS011;10015;52.530;13.390;2023-11-19T09:16:29;5.77;;;3.63;;
19727;SDS011;10015;52.530;13.390;2023-11-19T09:18:55;6.67;;;3.80;;
19727;SDS011;10015;52.530;13.390;2023-11-19T09:21:29;8.97;;;4.57;;
19727;SDS011;10015;52.530;13.390;2023-11-19T09:23:58;5.87;;;3.70;;
19727;SDS011;10015;52.530;13.390;2023-11-19T09:26:27;9.87;;;4.33;;
19727;SDS011;10015;52.530;13.390;2023-11-19T09:28:57;6.87;;;4.20;;
19727;SDS011;10015;52.530;13.390;2023-11-19T09:31:26;8.43;;;4.13;;
19727;SDS011;10015;52.530;13.390;2023-11-19T09:33:52;5.73;;;3.90;;
19727;SDS011;10015;52.530;13.390;2023-11-19T09:36:18;11.80;;;6.50;;
19727;SDS011;10015;52.530;13.390;2023-11-19T09:38:50;10.57;;;5.57;;
19727;SDS011;10015;52.530;13.390;2023-11-19T09:41:23;9.43;;;4.77;;
19727;SDS011;10015;52.530;13.390;2023-11-19T09:51:08;9.83;;;4.47;;
19727;SDS011;10015;52.530;13.390;2023-11-19T09:54:49;8.50;;;4.13;;
19727;SDS011;10015;52.530;13.390;2023-11-19T09:57:21;7.83;;;4.30;;
19727;SDS011;10015;52.530;13.390;2023-11-19T09:59:54;8.70;;;4.17;;
19727;SDS011;10015;52.530;13.390;2023-11-19T10:02:23;8.03;;;3.93;;
19727;SDS011;10015;52.530;13.390;2023-11-19T10:04:50;5.77;;;3.20;;
19727;SDS011;10015;52.530;13.390;2023-11-19T10:07:19;6.67;;;3.47;;
19727;SDS011;10015;52.530;13.390;2023-11-19T10:09:48;7.23;;;4.10;;
19727;SDS011;10015;52.530;13.390;2023-11-19T10:12:15;9.50;;;4.53;;
19727;SDS011;10015;52.530;13.390;2023-11-19T10:14:42;10.90;;;4.60;;
19727;SDS011;10015;52.530;13.390;2023-11-19T10:17:12;8.03;;;3.53;;
19727;SDS011;10015;52.530;13.390;2023-11-19T10:20:12;6.30;;;3.10;;
19727;SDS011;10015;52.530;13.390;2023-11-19T10:22:41;6.00;;;3.40;;
19727;SDS011;10015;52.530;13.390;2023-11-19T10:25:23;4.63;;;3.10;;
19727;SDS011;10015;52.530;13.390;2023-11-19T10:27:54;6.23;;;2.90;;
19727;SDS011;10015;52.530;13.390;2023-11-19T10:30:23;4.40;;;2.93;;
19727;SDS011;10015;52.530;13.390;2023-11-19T10:33:08;6.07;;;2.60;;
19727;SDS011;10015;52.530;13.390;2023-11-19T10:35:36;4.60;;;2.63;;
19727;SDS011;10015;52.530;13.390;2023-11-19T10:38:19;5.83;;;2.87;;
19727;SDS011;10015;52.530;13.390;2023-11-19T10:41:08;7.87;;;2.97;;
19727;SDS011;10015;52.530;13.390;2023-11-19T10:44:01;9.73;;;3.00;;
19727;SDS011;10015;52.530;13.390;2023-11-19T10:47:18;8.47;;;2.90;;
19727;SDS011;10015;52.530;13.390;2023-11-19T10:50:02;7.30;;;2.80;;
19727;SDS011;10015;52.530;13.390;2023-11-19T10:52:57;8.27;;;2.80;;
19727;SDS011;10015;52.530;13.390;2023-11-19T10:55:30;10.73;;;3.30;;
19727;SDS011;10015;52.530;13.390;2023-11-19T10:58:20;6.03;;;2.80;;
19727;SDS011;10015;52.530;13.390;2023-11-19T11:01:02;7.97;;;3.03;;
19727;SDS011;10015;52.530;13.390;2023-11-19T11:03:45;13.37;;;3.60;;
19727;SDS011;10015;52.530;13.390;2023-11-19T11:06:17;12.27;;;2.97;;
19727;SDS011;10015;52.530;13.390;2023-11-19T11:14:43;13.37;;;3.17;;
19727;SDS011;10015;52.530;13.390;2023-11-19T11:17:19;10.97;;;3.13;;
19727;SDS011;10015;52.530;13.390;2023-11-19T11:20:26;10.17;;;2.60;;
19727;SDS011;10015;52.530;13.390;2023-11-19T11:33:48;11.97;;;3.10;;
19727;SDS011;10015;52.530;13.390;2023-11-19T11:40:03;12.23;;;3.97;;
19727;SDS011;10015;52.530;13.390;2023-11-19T11:42:47;14.37;;;3.13;;
19727;SDS011;10015;52.530;13.390;2023-11-19T11:46:18;7.50;;;2.87;;
19727;SDS011;10015;52.530;13.390;2023-11-19T11:49:26;11.27;;;3.17;;
19727;SDS011;10015;52.530;13.390;2023-11-19T11:56:12;16.07;;;3.50;;
19727;SDS011;10015;52.530;13.390;2023-11-19T12:10:13;11.40;;;2.90;;
19727;SDS011;10015;52.530;13.390;2023-11-19T12:13:07;17.40;;;3.47;;
19727;SDS011;10015;52.530;13.390;2023-11-19T12:16:14;19.07;;;4.80;;
19727;SDS011;10015;52.530;13.390;2023-11-19T12:19:00;11.20;;;3.17;;
19727;SDS011;10015;52.530;13.390;2023-11-19T12:22:41;16.53;;;3.27;;
19727;SDS011;10015;52.530;13.390;2023-11-19T12:36:22;16.47;;;3.83;;
19727;SDS011;10015;52.530;13.390;2023-11-19T12:39:05;14.17;;;3.37;;
19727;SDS011;10015;52.530;13.390;2023-11-19T12:41:48;15.70;;;4.00;;
19727;SDS011;10015;52.530;13.390;2023-11-19T12:50:16;14.53;;;4.43;;
19727;SDS011;10015;52.530;13.390;2023-11-19T12:57:04;21.70;;;4.30;;
19727;SDS011;10015;52.530;13.390;2023-11-19T12:59:31;17.07;;;3.87;;
19727;SDS011;10015;52.530;13.390;2023-11-19T13:01:57;15.90;;;3.90;;
19727;SDS011;10015;52.530;13.390;2023-11-19T13:04:27;14.57;;;2.80;;
19727;SDS011;10015;52.530;13.390;2023-11-19T13:06:59;16.00;;;3.07;;
19727;SDS011;10015;52.530;13.390;2023-11-19T13:09:27;17.40;;;4.07;;
19727;SDS011;10015;52.530;13.390;2023-11-19T13:11:58;16.23;;;3.60;;
19727;SDS011;10015;52.530;13.390;2023-11-19T13:14:35;20.70;;;3.60;;
19727;SDS011;10015;52.530;13.390;2023-11-19T13:17:15;12.70;;;3.07;;
19727;SDS011;10015;52.530;13.390;2023-11-19T13:22:13;17.03;;;3.80;;
19727;SDS011;10015;52.530;13.390;2023-11-19T13:24:43;18.57;;;3.57;;
19727;SDS011;10015;52.530;13.390;2023-11-19T13:27:10;18.50;;;4.13;;
19727;SDS011;10015;52.530;13.390;2023-11-19T13:29:39;17.73;;;4.30;;
19727;SDS011;10015;52.530;13.390;2023-11-19T13:32:06;17.17;;;3.77;;
19727;SDS011;10015;52.530;13.390;2023-11-19T13:34:32;17.60;;;3.10;;
19727;SDS011;10015;52.530;13.390;2023-11-19T13:36:59;21.17;;;4.83;;
19727;SDS011;10015;52.530;13.390;2023-11-19T13:39:29;19.40;;;5.23;;
19727;SDS011;10015;52.530;13.390;2023-11-19T13:42:55;16.87;;;4.63;;
19727;SDS011;10015;52.530;13.390;2023-11-19T13:45:21;15.73;;;4.17;;
19727;SDS011;10015;52.530;13.390;2023-11-19T13:47:48;20.70;;;4.07;;
19727;SDS011;10015;52.530;13.390;2023-11-19T13:50:15;19.33;;;3.53;;
19727;SDS011;10015;52.530;13.390;2023-11-19T13:52:46;16.47;;;3.40;;
19727;SDS011;10015;52.530;13.390;2023-11-19T13:55:13;19.93;;;4.10;;
19727;SDS011;10015;52.530;13.390;2023-11-19T13:57:41;13.77;;;3.37;;
19727;SDS011;10015;52.530;13.390;2023-11-19T14:00:09;17.70;;;3.83;;
19727;SDS011;10015;52.530;13.390;2023-11-19T14:15:06;17.87;;;3.93;;
19727;SDS011;10015;52.530;13.390;2023-11-19T14:18:51;17.70;;;3.53;;
19727;SDS011;10015;52.530;13.390;2023-11-19T14:21:17;25.90;;;4.57;;
19727;SDS011;10015;52.530;13.390;2023-11-19T14:23:46;17.30;;;4.33;;
19727;SDS011;10015;52.530;13.390;2023-11-19T14:26:13;20.30;;;4.60;;
19727;SDS011;10015;52.530;13.390;2023-11-19T14:28:39;16.20;;;4.60;;
19727;SDS011;10015;52.530;13.390;2023-11-19T14:31:05;21.73;;;4.50;;
19727;SDS011;10015;52.530;13.390;2023-11-19T14:33:32;21.00;;;4.40;;
19727;SDS011;10015;52.530;13.390;2023-11-19T14:36:01;16.57;;;5.17;;
19727;SDS011;10015;52.530;13.390;2023-11-19T14:38:27;21.87;;;5.03;;
19727;SDS011;10015;52.530;13.390;2023-11-19T14:40:53;17.33;;;5.37;;
19727;SDS011;10015;52.530;13.390;2023-11-19T14:43:21;26.57;;;5.17;;
19727;SDS011;10015;52.530;13.390;2023-11-19T14:45:47;19.43;;;5.03;;
19727;SDS011;10015;52.530;13.390;2023-11-19T14:48:13;29.20;;;6.13;;
19727;SDS011;10015;52.530;13.390;2023-11-19T14:50:40;17.00;;;5.20;;
19727;SDS011;10015;52.530;13.390;2023-11-19T14:53:07;15.00;;;3.93;;
19727;SDS011;10015;52.530;13.390;2023-11-19T14:55:34;12.67;;;3.60;;
19727;SDS011;10015;52.530;13.390;2023-11-19T14:58:03;16.67;;;3.30;;
19727;SDS011;10015;52.530;13.390;2023-11-19T15:00:30;21.33;;;3.60;;
19727;SDS011;10015;52.530;13.390;2023-11-19T15:02:56;19.50;;;3.80;;
19727;SDS011;10015;52.530;13.390;2023-11-19T15:05:23;21.67;;;3.83;;
19727;SDS011;10015;52.530;13.390;2023-11-19T15:07:50;18.87;;;4.50;;
19727;SDS011;10015;52.530;13.390;2023-11-19T15:10:16;23.43;;;5.47;;
19727;SDS011;10015;52.530;13.390;2023-11-19T15:12:42;16.60;;;4.40;;
19727;SDS011;10015;52.530;13.390;2023-11-19T15:15:09;21.53;;;3.87;;
19727;SDS011;10015;52.530;13.390;2023-11-19T15:17:35;17.77;;;4.47;;
19727;SDS011;10015;52.530;13.390;2023-11-19T15:20:04;22.43;;;3.97;;
19727;SDS011;10015;52.530;13.390;2023-11-19T15:22:33;11.63;;;3.07;;
19727;SDS011;10015;52.530;13.390;2023-11-19T15:24:59;19.20;;;3.50;;
19727;SDS011;10015;52.530;13.390;2023-11-19T15:27:25;18.00;;;3.60;;
19727;SDS011;10015;52.530;13.390;2023-11-19T15:29:51;20.17;;;3.93;;
19727;SDS011;10015;52.530;13.390;2023-11-19T15:32:17;21.60;;;4.30;;
19727;SDS011;10015;52.530;13.390;2023-11-19T15:34:43;24.20;;;4.60;;
19727;SDS011;10015;52.530;13.390;2023-11-19T15:37:10;20.20;;;4.60;;
19727;SDS011;10015;52.530;13.390;2023-11-19T15:39:38;16.83;;;3.33;;
19727;SDS011;10015;52.530;13.390;2023-11-19T15:42:04;15.20;;;3.30;;
19727;SDS011;10015;52.530;13.390;2023-11-19T15:44:33;14.37;;;3.40;;
19727;SDS011;10015;52.530;13.390;2023-11-19T15:47:00;24.97;;;4.50;;
19727;SDS011;10015;52.530;13.390;2023-11-19T15:49:26;21.63;;;3.80;;
19727;SDS011;10015;52.530;13.390;2023-11-19T15:51:53;18.87;;;4.47;;
19727;SDS011;10015;52.530;13.390;2023-11-19T15:54:19;24.60;;;3.97;;
19727;SDS011;10015;52.530;13.390;2023-11-19T15:56:46;16.97;;;4.13;;
19727;SDS011;10015;52.530;13.390;2023-11-19T15:59:12;18.17;;;3.83;;
19727;SDS011;10015;52.530;13.390;2023-11-19T16:01:41;23.20;;;4.57;;
19727;SDS011;10015;52.530;13.390;2023-11-19T16:04:08;23.97;;;5.07;;
19727;SDS011;10015;52.530;13.390;2023-11-19T16:06:35;15.67;;;4.13;;
19727;SDS011;10015;52.530;13.390;2023-11-19T16:09:02;20.70;;;3.50;;
19727;SDS011;10015;52.530;13.390;2023-11-19T16:11:29;15.63;;;3.70;;